sensor_id;sensor_type;location;lat;lon;timestamp;pressure;altitude;pressure_sealevel;temperature;humidity
62632;BME280;48703;51.248;-0.546;2022-08-14T00:02:29;71619;;;21.27;89.67
62632;BME280;48703;51.248;-0.546;2022-08-14T00:05:31;71619;;;21.27;89.67
62632;BME280;48703;51.248;-0.546;2022-08-14T00:08:33;71619;;;21.27;89.67
62632;BME280;48703;51.248;-0.546;2022-08-14T00:11:35;71619;;;21.27;89.67
62632;BME280;48703;51.248;-0.546;2022-08-14T00:14:37;71619;;;21.27;89.67
62632;BME280;48703;51.248;-0.546;2022-08-14T00:17:38;71619;;;21.27;89.67
62632;BME280;48703;51.248;-0.546;2022-08-14T00:20:41;71619;;;21.27;89.67
62632;BME280;48703;51.248;-0.546;2022-08-14T00:23:42;71619;;;21.27;89.67
62632;BME280;48703;51.248;-0.546;2022-08-14T00:26:44;71619;;;21.27;89.67
62632;BME280;48703;51.248;-0.546;2022-08-14T00:29:46;71619;;;21.27;89.67
62632;BME280;48703;51.248;-0.546;2022-08-14T00:32:48;71619;;;21.27;89.67
62632;BME280;48703;51.248;-0.546;2022-08-14T00:35:50;71619;;;21.27;89.67
62632;BME280;48703;51.248;-0.546;2022-08-14T00:38:51;71619;;;21.27;89.67
62632;BME280;48703;51.248;-0.546;2022-08-14T00:41:53;71619;;;21.27;89.67
62632;BME280;48703;51.248;-0.546;2022-08-14T00:44:55;71619;;;21.27;89.67
62632;BME280;48703;51.248;-0.546;2022-08-14T00:47:57;71619;;;21.27;89.67
62632;BME280;48703;51.248;-0.546;2022-08-14T00:50:59;71619;;;21.27;89.67
62632;BME280;48703;51.248;-0.546;2022-08-14T00:54:01;71619;;;21.27;89.67
62632;BME280;48703;51.248;-0.546;2022-08-14T00:57:03;71619;;;21.27;89.67
62632;BME280;48703;51.248;-0.546;2022-08-14T01:00:07;71619;;;21.27;89.67
62632;BME280;48703;51.248;-0.546;2022-08-14T01:03:06;71619;;;21.27;89.67
62632;BME280;48703;51.248;-0.546;2022-08-14T01:06:09;71619;;;21.27;89.67
62632;BME280;48703;51.248;-0.546;2022-08-14T01:09:10;71619;;;21.27;89.67
62632;BME280;48703;51.248;-0.546;2022-08-14T01:12:12;71619;;;21.27;89.67
62632;BME280;48703;51.248;-0.546;2022-08-14T01:15:14;71619;;;21.27;89.67
62632;BME280;48703;51.248;-0.546;2022-08-14T01:18:16;71619;;;21.27;89.67
62632;BME280;48703;51.248;-0.546;2022-08-14T01:21:20;71619;;;21.27;89.67
62632;BME280;48703;51.248;-0.546;2022-08-14T01:24:19;71619;;;21.27;89.67
62632;BME280;48703;51.248;-0.546;2022-08-14T01:27:21;71619;;;21.27;89.67
62632;BME280;48703;51.248;-0.546;2022-08-14T01:30:23;71619;;;21.27;89.67
62632;BME280;48703;51.248;-0.546;2022-08-14T01:33:27;71619;;;21.27;89.67
62632;BME280;48703;51.248;-0.546;2022-08-14T01:36:27;71619;;;21.27;89.67
62632;BME280;48703;51.248;-0.546;2022-08-14T01:39:29;71619;;;21.27;89.67
62632;BME280;48703;51.248;-0.546;2022-08-14T01:42:31;71619;;;21.27;89.67
62632;BME280;48703;51.248;-0.546;2022-08-14T01:45:32;71619;;;21.27;89.67
62632;BME280;48703;51.248;-0.546;2022-08-14T01:48:34;71619;;;21.27;89.67
62632;BME280;48703;51.248;-0.546;2022-08-14T01:51:36;71619;;;21.27;89.67
62632;BME280;48703;51.248;-0.546;2022-08-14T01:54:38;71619;;;21.27;89.67
62632;BME280;48703;51.248;-0.546;2022-08-14T01:57:40;71619;;;21.27;89.67
62632;BME280;48703;51.248;-0.546;2022-08-14T02:00:42;71619;;;21.27;89.67
62632;BME280;48703;51.248;-0.546;2022-08-14T02:03:44;71619;;;21.27;89.67
62632;BME280;48703;51.248;-0.546;2022-08-14T02:06:46;71619;;;21.27;89.67
62632;BME280;48703;51.248;-0.546;2022-08-14T02:09:47;71619;;;21.27;89.67
62632;BME280;48703;51.248;-0.546;2022-08-14T02:12:49;71619;;;21.27;89.67
62632;BME280;48703;51.248;-0.546;2022-08-14T02:15:51;71619;;;21.27;89.67
62632;BME280;48703;51.248;-0.546;2022-08-14T02:18:54;71619;;;21.27;89.67
62632;BME280;48703;51.248;-0.546;2022-08-14T02:21:56;71619;;;21.27;89.67
62632;BME280;48703;51.248;-0.546;2022-08-14T02:24:57;71619;;;21.27;89.67
62632;BME280;48703;51.248;-0.546;2022-08-14T02:27:58;71619;;;21.27;89.67
62632;BME280;48703;51.248;-0.546;2022-08-14T02:31:00;71619;;;21.27;89.67
62632;BME280;48703;51.248;-0.546;2022-08-14T02:34:03;71619;;;21.27;89.67
62632;BME280;48703;51.248;-0.546;2022-08-14T02:37:06;71619;;;21.27;89.67
62632;BME280;48703;51.248;-0.546;2022-08-14T02:40:06;71619;;;21.27;89.67
62632;BME280;48703;51.248;-0.546;2022-08-14T02:43:08;71619;;;21.27;89.67
62632;BME280;48703;51.248;-0.546;2022-08-14T02:46:10;71619;;;21.27;89.67
62632;BME280;48703;51.248;-0.546;2022-08-14T02:49:12;71619;;;21.27;89.67
62632;BME280;48703;51.248;-0.546;2022-08-14T02:52:13;71619;;;21.27;89.67
62632;BME280;48703;51.248;-0.546;2022-08-14T02:55:15;71619;;;21.27;89.67
62632;BME280;48703;51.248;-0.546;2022-08-14T02:58:17;71619;;;21.27;89.67
62632;BME280;48703;51.248;-0.546;2022-08-14T03:01:19;71619;;;21.27;89.67
62632;BME280;48703;51.248;-0.546;2022-08-14T03:04:21;71619;;;21.27;89.67
62632;BME280;48703;51.248;-0.546;2022-08-14T03:07:23;71619;;;21.27;89.67
62632;BME280;48703;51.248;-0.546;2022-08-14T03:10:25;71619;;;21.27;89.67
62632;BME280;48703;51.248;-0.546;2022-08-14T03:13:26;71619;;;21.27;89.67
62632;BME280;48703;51.248;-0.546;2022-08-14T03:16:28;71619;;;21.27;89.67
62632;BME280;48703;51.248;-0.546;2022-08-14T03:19:30;71619;;;21.27;89.67
62632;BME280;48703;51.248;-0.546;2022-08-14T03:22:32;71619;;;21.27;89.67
62632;BME280;48703;51.248;-0.546;2022-08-14T03:25:34;71619;;;21.27;89.67
62632;BME280;48703;51.248;-0.546;2022-08-14T03:28:36;71619;;;21.27;89.67
62632;BME280;48703;51.248;-0.546;2022-08-14T03:31:38;71619;;;21.27;89.67
62632;BME280;48703;51.248;-0.546;2022-08-14T03:34:39;71619;;;21.27;89.67
62632;BME280;48703;51.248;-0.546;2022-08-14T03:37:41;71619;;;21.27;89.67
62632;BME280;48703;51.248;-0.546;2022-08-14T03:40:43;71619;;;21.27;89.67
62632;BME280;48703;51.248;-0.546;2022-08-14T03:43:46;71619;;;21.27;89.67
62632;BME280;48703;51.248;-0.546;2022-08-14T03:46:47;71619;;;21.27;89.67
62632;BME280;48703;51.248;-0.546;2022-08-14T03:49:49;71619;;;21.27;89.67
62632;BME280;48703;51.248;-0.546;2022-08-14T03:52:51;71619;;;21.27;89.67
62632;BME280;48703;51.248;-0.546;2022-08-14T03:55:52;71619;;;21.27;89.67
62632;BME280;48703;51.248;-0.546;2022-08-14T03:58:56;71619;;;21.27;89.67
62632;BME280;48703;51.248;-0.546;2022-08-14T04:01:56;71619;;;21.27;89.67
62632;BME280;48703;51.248;-0.546;2022-08-14T04:04:58;71619;;;21.27;89.67
62632;BME280;48703;51.248;-0.546;2022-08-14T04:08:00;71619;;;21.27;89.67
62632;BME280;48703;51.248;-0.546;2022-08-14T04:11:02;71619;;;21.27;89.67
62632;BME280;48703;51.248;-0.546;2022-08-14T04:14:04;71619;;;21.27;89.67
62632;BME280;48703;51.248;-0.546;2022-08-14T04:17:05;71619;;;21.27;89.67
62632;BME280;48703;51.248;-0.546;2022-08-14T04:20:08;71619;;;21.27;89.67
62632;BME280;48703;51.248;-0.546;2022-08-14T04:23:09;71619;;;21.27;89.67
62632;BME280;48703;51.248;-0.546;2022-08-14T04:26:12;71619;;;21.27;89.67
62632;BME280;48703;51.248;-0.546;2022-08-14T04:29:13;71619;;;21.27;89.67
62632;BME280;48703;51.248;-0.546;2022-08-14T04:32:15;71619;;;21.27;89.67
62632;BME280;48703;51.248;-0.546;2022-08-14T04:35:17;71619;;;21.27;89.67
62632;BME280;48703;51.248;-0.546;2022-08-14T04:38:19;71619;;;21.27;89.67
62632;BME280;48703;51.248;-0.546;2022-08-14T04:41:20;71619;;;21.27;89.67
62632;BME280;48703;51.248;-0.546;2022-08-14T04:44:22;71619;;;21.27;89.67
62632;BME280;48703;51.248;-0.546;2022-08-14T04:47:24;71619;;;21.27;89.67
62632;BME280;48703;51.248;-0.546;2022-08-14T04:50:26;71619;;;21.27;89.67
62632;BME280;48703;51.248;-0.546;2022-08-14T04:53:28;71619;;;21.27;89.67
62632;BME280;48703;51.248;-0.546;2022-08-14T04:56:30;71619;;;21.27;89.67
62632;BME280;48703;51.248;-0.546;2022-08-14T04:59:32;71619;;;21.27;89.67
62632;BME280;48703;51.248;-0.546;2022-08-14T05:02:33;71619;;;21.27;89.67
62632;BME280;48703;51.248;-0.546;2022-08-14T05:05:35;71619;;;21.27;89.67
62632;BME280;48703;51.248;-0.546;2022-08-14T05:08:37;71619;;;21.27;89.67
62632;BME280;48703;51.248;-0.546;2022-08-14T05:11:39;71619;;;21.27;89.67
62632;BME280;48703;51.248;-0.546;2022-08-14T05:14:41;71619;;;21.27;89.67
62632;BME280;48703;51.248;-0.546;2022-08-14T05:17:43;71619;;;21.27;89.67
62632;BME280;48703;51.248;-0.546;2022-08-14T05:20:45;71619;;;21.27;89.67
62632;BME280;48703;51.248;-0.546;2022-08-14T05:23:47;71619;;;21.27;89.67
62632;BME280;48703;51.248;-0.546;2022-08-14T05:26:48;71619;;;21.27;89.67
62632;BME280;48703;51.248;-0.546;2022-08-14T05:29:51;71619;;;21.27;89.67
62632;BME280;48703;51.248;-0.546;2022-08-14T05:32:52;71619;;;21.27;89.67
62632;BME280;48703;51.248;-0.546;2022-08-14T05:35:55;71619;;;21.27;89.67
62632;BME280;48703;51.248;-0.546;2022-08-14T05:38:56;71619;;;21.27;89.67
62632;BME280;48703;51.248;-0.546;2022-08-14T05:41:58;71619;;;21.27;89.67
62632;BME280;48703;51.248;-0.546;2022-08-14T05:45:00;71619;;;21.27;89.67
62632;BME280;48703;51.248;-0.546;2022-08-14T05:48:02;71619;;;21.27;89.67
62632;BME280;48703;51.248;-0.546;2022-08-14T05:51:04;71619;;;21.27;89.67
62632;BME280;48703;51.248;-0.546;2022-08-14T05:54:05;71619;;;21.27;89.67
62632;BME280;48703;51.248;-0.546;2022-08-14T05:57:07;71619;;;21.27;89.67
62632;BME280;48703;51.248;-0.546;2022-08-14T06:00:09;71619;;;21.27;89.67
62632;BME280;48703;51.248;-0.546;2022-08-14T06:03:12;71619;;;21.27;89.67
62632;BME280;48703;51.248;-0.546;2022-08-14T06:06:12;71619;;;21.27;89.67
62632;BME280;48703;51.248;-0.546;2022-08-14T06:09:14;71619;;;21.27;89.67
62632;BME280;48703;51.248;-0.546;2022-08-14T06:12:16;71619;;;21.27;89.67
62632;BME280;48703;51.248;-0.546;2022-08-14T06:15:18;71619;;;21.27;89.67
62632;BME280;48703;51.248;-0.546;2022-08-14T06:18:20;71619;;;21.27;89.67
62632;BME280;48703;51.248;-0.546;2022-08-14T06:21:22;71619;;;21.27;89.67
62632;BME280;48703;51.248;-0.546;2022-08-14T06:24:24;71619;;;21.27;89.67
62632;BME280;48703;51.248;-0.546;2022-08-14T06:27:25;71619;;;21.27;89.67
62632;BME280;48703;51.248;-0.546;2022-08-14T06:30:28;71619;;;21.27;89.67
62632;BME280;48703;51.248;-0.546;2022-08-14T06:33:29;71619;;;21.27;89.67
62632;BME280;48703;51.248;-0.546;2022-08-14T06:36:31;71619;;;21.27;89.67
62632;BME280;48703;51.248;-0.546;2022-08-14T06:39:33;71619;;;21.27;89.67
62632;BME280;48703;51.248;-0.546;2022-08-14T06:42:35;71619;;;21.27;89.67
62632;BME280;48703;51.248;-0.546;2022-08-14T06:45:39;71619;;;21.27;89.67
62632;BME280;48703;51.248;-0.546;2022-08-14T06:48:39;71619;;;21.27;89.67
62632;BME280;48703;51.248;-0.546;2022-08-14T06:51:40;71619;;;21.27;89.67
62632;BME280;48703;51.248;-0.546;2022-08-14T06:54:42;71619;;;21.27;89.67
62632;BME280;48703;51.248;-0.546;2022-08-14T06:57:45;71619;;;21.27;89.67
62632;BME280;48703;51.248;-0.546;2022-08-14T07:00:46;71619;;;21.27;89.67
62632;BME280;48703;51.248;-0.546;2022-08-14T07:03:48;71619;;;21.27;89.67
62632;BME280;48703;51.248;-0.546;2022-08-14T07:06:50;71619;;;21.27;89.67
62632;BME280;48703;51.248;-0.546;2022-08-14T07:09:52;71619;;;21.27;89.67
62632;BME280;48703;51.248;-0.546;2022-08-14T07:12:53;71619;;;21.27;89.67
62632;BME280;48703;51.248;-0.546;2022-08-14T07:15:56;71619;;;21.27;89.67
62632;BME280;48703;51.248;-0.546;2022-08-14T07:18:57;71619;;;21.27;89.67
62632;BME280;48703;51.248;-0.546;2022-08-14T07:21:59;71619;;;21.27;89.67
62632;BME280;48703;51.248;-0.546;2022-08-14T07:25:01;71619;;;21.27;89.67
62632;BME280;48703;51.248;-0.546;2022-08-14T07:28:07;71619;;;21.27;89.67
62632;BME280;48703;51.248;-0.546;2022-08-14T07:31:06;71619;;;21.27;89.67
62632;BME280;48703;51.248;-0.546;2022-08-14T07:34:07;71619;;;21.27;89.67
62632;BME280;48703;51.248;-0.546;2022-08-14T07:37:08;71619;;;21.27;89.67
62632;BME280;48703;51.248;-0.546;2022-08-14T07:40:11;71619;;;21.27;89.67
62632;BME280;48703;51.248;-0.546;2022-08-14T07:43:12;71619;;;21.27;89.67
62632;BME280;48703;51.248;-0.546;2022-08-14T07:46:14;71619;;;21.27;89.67
62632;BME280;48703;51.248;-0.546;2022-08-14T07:49:16;71619;;;21.27;89.67
62632;BME280;48703;51.248;-0.546;2022-08-14T07:52:18;71619;;;21.27;89.67
62632;BME280;48703;51.248;-0.546;2022-08-14T07:55:20;71619;;;21.27;89.67
62632;BME280;48703;51.248;-0.546;2022-08-14T07:58:21;71619;;;21.27;89.67
62632;BME280;48703;51.248;-0.546;2022-08-14T08:01:23;71619;;;21.27;89.67
62632;BME280;48703;51.248;-0.546;2022-08-14T08:04:25;71619;;;21.27;89.67
62632;BME280;48703;51.248;-0.546;2022-08-14T08:07:28;71619;;;21.27;89.67
62632;BME280;48703;51.248;-0.546;2022-08-14T08:10:29;71619;;;21.27;89.67
62632;BME280;48703;51.248;-0.546;2022-08-14T08:13:31;71619;;;21.27;89.67
62632;BME280;48703;51.248;-0.546;2022-08-14T08:16:33;71619;;;21.27;89.67
62632;BME280;48703;51.248;-0.546;2022-08-14T08:19:34;71619;;;21.27;89.67
62632;BME280;48703;51.248;-0.546;2022-08-14T08:22:36;71619;;;21.27;89.67
62632;BME280;48703;51.248;-0.546;2022-08-14T08:25:40;71619;;;21.27;89.67
62632;BME280;48703;51.248;-0.546;2022-08-14T08:28:40;71619;;;21.27;89.67
62632;BME280;48703;51.248;-0.546;2022-08-14T08:31:46;71619;;;21.27;89.67
62632;BME280;48703;51.248;-0.546;2022-08-14T08:34:44;71619;;;21.27;89.67
62632;BME280;48703;51.248;-0.546;2022-08-14T08:37:46;71619;;;21.27;89.67
62632;BME280;48703;51.248;-0.546;2022-08-14T08:40:48;71619;;;21.27;89.67
62632;BME280;48703;51.248;-0.546;2022-08-14T08:43:49;71619;;;21.27;89.67
62632;BME280;48703;51.248;-0.546;2022-08-14T08:46:55;71619;;;21.27;89.67
62632;BME280;48703;51.248;-0.546;2022-08-14T08:49:53;71619;;;21.27;89.67
62632;BME280;48703;51.248;-0.546;2022-08-14T08:52:56;71619;;;21.27;89.67
62632;BME280;48703;51.248;-0.546;2022-08-14T08:55:57;71619;;;21.27;89.67
62632;BME280;48703;51.248;-0.546;2022-08-14T08:58:59;71619;;;21.27;89.67
62632;BME280;48703;51.248;-0.546;2022-08-14T09:02:01;71619;;;21.27;89.67
62632;BME280;48703;51.248;-0.546;2022-08-14T09:05:03;71619;;;21.27;89.67
62632;BME280;48703;51.248;-0.546;2022-08-14T09:08:08;71619;;;21.27;89.67
62632;BME280;48703;51.248;-0.546;2022-08-14T09:11:06;71619;;;21.27;89.67
62632;BME280;48703;51.248;-0.546;2022-08-14T09:14:08;71619;;;21.27;89.67
62632;BME280;48703;51.248;-0.546;2022-08-14T09:17:10;71619;;;21.27;89.67
62632;BME280;48703;51.248;-0.546;2022-08-14T09:20:12;71619;;;21.27;89.67
62632;BME280;48703;51.248;-0.546;2022-08-14T09:23:14;71619;;;21.27;89.67
62632;BME280;48703;51.248;-0.546;2022-08-14T09:26:15;71619;;;21.27;89.67
62632;BME280;48703;51.248;-0.546;2022-08-14T09:29:17;71619;;;21.27;89.67
62632;BME280;48703;51.248;-0.546;2022-08-14T09:32:21;71619;;;21.27;89.67
62632;BME280;48703;51.248;-0.546;2022-08-14T09:35:22;71619;;;21.27;89.67
62632;BME280;48703;51.248;-0.546;2022-08-14T09:38:24;71619;;;21.27;89.67
62632;BME280;48703;51.248;-0.546;2022-08-14T09:41:30;71619;;;21.27;89.67
62632;BME280;48703;51.248;-0.546;2022-08-14T09:44:29;71619;;;21.27;89.67
62632;BME280;48703;51.248;-0.546;2022-08-14T09:47:46;71619;;;21.27;89.67
62632;BME280;48703;51.248;-0.546;2022-08-14T09:50:31;71619;;;21.27;89.67
62632;BME280;48703;51.248;-0.546;2022-08-14T09:53:34;71619;;;21.27;89.67
62632;BME280;48703;51.248;-0.546;2022-08-14T09:56:42;71619;;;21.27;89.67
62632;BME280;48703;51.248;-0.546;2022-08-14T09:59:40;71619;;;21.27;89.67
62632;BME280;48703;51.248;-0.546;2022-08-14T10:02:38;71619;;;21.27;89.67
62632;BME280;48703;51.248;-0.546;2022-08-14T10:05:40;71619;;;21.27;89.67
62632;BME280;48703;51.248;-0.546;2022-08-14T10:08:42;71619;;;21.27;89.67
62632;BME280;48703;51.248;-0.546;2022-08-14T10:11:52;71619;;;21.27;89.67
62632;BME280;48703;51.248;-0.546;2022-08-14T10:14:45;71619;;;21.27;89.67
62632;BME280;48703;51.248;-0.546;2022-08-14T10:17:47;71619;;;21.27;89.67
62632;BME280;48703;51.248;-0.546;2022-08-14T10:20:51;71619;;;21.27;89.67
62632;BME280;48703;51.248;-0.546;2022-08-14T10:23:51;71619;;;21.27;89.67
62632;BME280;48703;51.248;-0.546;2022-08-14T10:26:53;71619;;;21.27;89.67
62632;BME280;48703;51.248;-0.546;2022-08-14T10:29:55;71619;;;21.27;89.67
62632;BME280;48703;51.248;-0.546;2022-08-14T10:32:56;71619;;;21.27;89.67
62632;BME280;48703;51.248;-0.546;2022-08-14T10:35:59;71619;;;21.27;89.67
62632;BME280;48703;51.248;-0.546;2022-08-14T10:39:03;71619;;;21.27;89.67
62632;BME280;48703;51.248;-0.546;2022-08-14T10:42:03;71619;;;21.27;89.67
62632;BME280;48703;51.248;-0.546;2022-08-14T10:45:15;71619;;;21.27;89.67
62632;BME280;48703;51.248;-0.546;2022-08-14T10:48:12;71619;;;21.27;89.67
62632;BME280;48703;51.248;-0.546;2022-08-14T10:51:08;71619;;;21.27;89.67
62632;BME280;48703;51.248;-0.546;2022-08-14T10:54:09;71619;;;21.27;89.67
62632;BME280;48703;51.248;-0.546;2022-08-14T10:57:12;71619;;;21.27;89.67
62632;BME280;48703;51.248;-0.546;2022-08-14T11:00:14;71619;;;21.27;89.67
62632;BME280;48703;51.248;-0.546;2022-08-14T11:03:15;71619;;;21.27;89.67
62632;BME280;48703;51.248;-0.546;2022-08-14T11:06:17;71619;;;21.27;89.67
62632;BME280;48703;51.248;-0.546;2022-08-14T11:09:19;71619;;;21.27;89.67
62632;BME280;48703;51.248;-0.546;2022-08-14T11:12:21;71619;;;21.27;89.67
62632;BME280;48703;51.248;-0.546;2022-08-14T11:15:23;71619;;;21.27;89.67
62632;BME280;48703;51.248;-0.546;2022-08-14T11:18:25;71619;;;21.27;89.67
62632;BME280;48703;51.248;-0.546;2022-08-14T11:21:26;71619;;;21.27;89.67
62632;BME280;48703;51.248;-0.546;2022-08-14T11:24:28;71619;;;21.27;89.67
62632;BME280;48703;51.248;-0.546;2022-08-14T11:27:30;71619;;;21.27;89.67
62632;BME280;48703;51.248;-0.546;2022-08-14T11:30:32;71619;;;21.27;89.67
62632;BME280;48703;51.248;-0.546;2022-08-14T11:33:34;71619;;;21.27;89.67
62632;BME280;48703;51.248;-0.546;2022-08-14T11:36:35;71619;;;21.27;89.67
62632;BME280;48703;51.248;-0.546;2022-08-14T11:39:37;71619;;;21.27;89.67
62632;BME280;48703;51.248;-0.546;2022-08-14T11:42:39;71619;;;21.27;89.67
62632;BME280;48703;51.248;-0.546;2022-08-14T11:45:45;71619;;;21.27;89.67
62632;BME280;48703;51.248;-0.546;2022-08-14T11:48:43;71619;;;21.27;89.67
62632;BME280;48703;51.248;-0.546;2022-08-14T11:51:51;71619;;;21.27;89.67
62632;BME280;48703;51.248;-0.546;2022-08-14T11:54:55;71619;;;21.27;89.67
62632;BME280;48703;51.248;-0.546;2022-08-14T11:57:57;71619;;;21.27;89.67
62632;BME280;48703;51.248;-0.546;2022-08-14T12:00:51;71619;;;21.27;89.67
62632;BME280;48703;51.248;-0.546;2022-08-14T12:03:52;71619;;;21.27;89.67
62632;BME280;48703;51.248;-0.546;2022-08-14T12:06:54;71619;;;21.27;89.67
62632;BME280;48703;51.248;-0.546;2022-08-14T12:09:56;71619;;;21.27;89.67
62632;BME280;48703;51.248;-0.546;2022-08-14T12:12:58;71619;;;21.27;89.67
62632;BME280;48703;51.248;-0.546;2022-08-14T12:16:00;71619;;;21.27;89.67
62632;BME280;48703;51.248;-0.546;2022-08-14T12:19:02;71619;;;21.27;89.67
62632;BME280;48703;51.248;-0.546;2022-08-14T12:22:03;71619;;;21.27;89.67
62632;BME280;48703;51.248;-0.546;2022-08-14T12:25:06;71619;;;21.27;89.67
62632;BME280;48703;51.248;-0.546;2022-08-14T12:28:09;71619;;;21.27;89.67
62632;BME280;48703;51.248;-0.546;2022-08-14T12:31:11;71619;;;21.27;89.67
62632;BME280;48703;51.248;-0.546;2022-08-14T12:34:11;71619;;;21.27;89.67
62632;BME280;48703;51.248;-0.546;2022-08-14T12:37:13;71619;;;21.27;89.67
62632;BME280;48703;51.248;-0.546;2022-08-14T12:40:15;71619;;;21.27;89.67
62632;BME280;48703;51.248;-0.546;2022-08-14T12:43:17;71619;;;21.27;89.67
62632;BME280;48703;51.248;-0.546;2022-08-14T12:46:20;71619;;;21.27;89.67
62632;BME280;48703;51.248;-0.546;2022-08-14T12:49:20;71619;;;21.27;89.67
62632;BME280;48703;51.248;-0.546;2022-08-14T12:52:28;71619;;;21.27;89.67
62632;BME280;48703;51.248;-0.546;2022-08-14T12:55:24;71619;;;21.27;89.67
62632;BME280;48703;51.248;-0.546;2022-08-14T12:58:27;71619;;;21.27;89.67
62632;BME280;48703;51.248;-0.546;2022-08-14T13:01:28;71619;;;21.27;89.67
62632;BME280;48703;51.248;-0.546;2022-08-14T13:04:29;71619;;;21.27;89.67
62632;BME280;48703;51.248;-0.546;2022-08-14T13:07:31;71619;;;21.27;89.67
62632;BME280;48703;51.248;-0.546;2022-08-14T13:10:33;71619;;;21.27;89.67
62632;BME280;48703;51.248;-0.546;2022-08-14T13:13:35;71619;;;21.27;89.67
62632;BME280;48703;51.248;-0.546;2022-08-14T13:16:37;71619;;;21.27;89.67
62632;BME280;48703;51.248;-0.546;2022-08-14T13:19:39;71619;;;21.27;89.67
62632;BME280;48703;51.248;-0.546;2022-08-14T13:22:41;71619;;;21.27;89.67
62632;BME280;48703;51.248;-0.546;2022-08-14T13:25:43;71619;;;21.27;89.67
62632;BME280;48703;51.248;-0.546;2022-08-14T13:28:44;71619;;;21.27;89.67
62632;BME280;48703;51.248;-0.546;2022-08-14T13:31:48;71619;;;21.27;89.67
62632;BME280;48703;51.248;-0.546;2022-08-14T13:34:48;71619;;;21.27;89.67
62632;BME280;48703;51.248;-0.546;2022-08-14T13:37:51;71619;;;21.27;89.67
62632;BME280;48703;51.248;-0.546;2022-08-14T13:40:53;71619;;;21.27;89.67
62632;BME280;48703;51.248;-0.546;2022-08-14T13:43:54;71619;;;21.27;89.67
62632;BME280;48703;51.248;-0.546;2022-08-14T13:46:56;71619;;;21.27;89.67
62632;BME280;48703;51.248;-0.546;2022-08-14T13:51:03;99856;;;29.70;30.78
62632;BME280;48703;51.248;-0.546;2022-08-14T13:54:03;99854;;;29.78;30.24
62632;BME280;48703;51.248;-0.546;2022-08-14T13:57:05;99851;;;29.82;31.62
62632;BME280;48703;51.248;-0.546;2022-08-14T14:00:08;99846;;;29.84;31.27
62632;BME280;48703;51.248;-0.546;2022-08-14T14:03:09;99843;;;29.87;31.54
62632;BME280;48703;51.248;-0.546;2022-08-14T14:06:12;99843;;;29.89;30.87
62632;BME280;48703;51.248;-0.546;2022-08-14T14:09:13;99843;;;29.97;30.72
62632;BME280;48703;51.248;-0.546;2022-08-14T14:12:14;99841;;;30.03;30.56
62632;BME280;48703;51.248;-0.546;2022-08-14T14:15:17;99834;;;30.09;29.89
62632;BME280;48703;51.248;-0.546;2022-08-14T14:18:18;99828;;;30.19;30.57
62632;BME280;48703;51.248;-0.546;2022-08-14T14:21:20;99826;;;30.26;30.11
62632;BME280;48703;51.248;-0.546;2022-08-14T14:24:22;99823;;;30.33;30.21
62632;BME280;48703;51.248;-0.546;2022-08-14T14:27:24;99825;;;30.45;30.40
62632;BME280;48703;51.248;-0.546;2022-08-14T14:30:25;99822;;;30.53;30.02
62632;BME280;48703;51.248;-0.546;2022-08-14T14:33:27;99817;;;30.60;29.47
62632;BME280;48703;51.248;-0.546;2022-08-14T14:36:28;99814;;;30.62;28.15
62632;BME280;48703;51.248;-0.546;2022-08-14T14:39:30;99807;;;30.65;29.16
62632;BME280;48703;51.248;-0.546;2022-08-14T14:42:31;99805;;;30.72;28.77
62632;BME280;48703;51.248;-0.546;2022-08-14T14:45:32;99810;;;30.73;29.06
62632;BME280;48703;51.248;-0.546;2022-08-14T14:48:35;99810;;;30.65;28.14
62632;BME280;48703;51.248;-0.546;2022-08-14T14:51:37;99806;;;30.58;28.22
62632;BME280;48703;51.248;-0.546;2022-08-14T14:54:38;99803;;;30.55;28.00
62632;BME280;48703;51.248;-0.546;2022-08-14T14:57:40;99801;;;30.57;28.31
62632;BME280;48703;51.248;-0.546;2022-08-14T15:00:41;99798;;;30.58;28.20
62632;BME280;48703;51.248;-0.546;2022-08-14T15:03:43;99795;;;30.60;28.85
62632;BME280;48703;51.248;-0.546;2022-08-14T15:06:45;99796;;;30.61;27.58
62632;BME280;48703;51.248;-0.546;2022-08-14T15:09:47;99792;;;30.61;28.26
62632;BME280;48703;51.248;-0.546;2022-08-14T15:12:49;99789;;;30.63;29.17
62632;BME280;48703;51.248;-0.546;2022-08-14T15:15:51;99788;;;30.64;28.03
62632;BME280;48703;51.248;-0.546;2022-08-14T15:18:53;99785;;;30.58;27.17
62632;BME280;48703;51.248;-0.546;2022-08-14T15:21:54;99779;;;30.54;28.24
62632;BME280;48703;51.248;-0.546;2022-08-14T15:24:56;99778;;;30.55;29.34
62632;BME280;48703;51.248;-0.546;2022-08-14T15:27:59;99776;;;30.60;27.83
62632;BME280;48703;51.248;-0.546;2022-08-14T15:31:00;99777;;;30.70;28.37
62632;BME280;48703;51.248;-0.546;2022-08-14T15:34:02;99772;;;30.74;27.79
62632;BME280;48703;51.248;-0.546;2022-08-14T15:37:04;99766;;;30.81;27.11
62632;BME280;48703;51.248;-0.546;2022-08-14T15:40:06;99762;;;30.92;26.97
62632;BME280;48703;51.248;-0.546;2022-08-14T15:43:09;99765;;;31.05;27.95
62632;BME280;48703;51.248;-0.546;2022-08-14T15:46:09;99767;;;31.11;26.54
62632;BME280;48703;51.248;-0.546;2022-08-14T15:49:11;99765;;;31.16;26.43
62632;BME280;48703;51.248;-0.546;2022-08-14T15:52:13;99763;;;31.22;27.52
62632;BME280;48703;51.248;-0.546;2022-08-14T15:55:15;99765;;;31.27;27.11
62632;BME280;48703;51.248;-0.546;2022-08-14T15:58:17;99766;;;31.26;27.85
62632;BME280;48703;51.248;-0.546;2022-08-14T16:01:19;99766;;;31.22;26.77
62632;BME280;48703;51.248;-0.546;2022-08-14T16:04:20;99766;;;31.19;28.18
62632;BME280;48703;51.248;-0.546;2022-08-14T16:07:23;99766;;;31.13;26.95
62632;BME280;48703;51.248;-0.546;2022-08-14T16:10:24;99765;;;31.02;27.15
62632;BME280;48703;51.248;-0.546;2022-08-14T16:13:26;99765;;;30.97;28.45
62632;BME280;48703;51.248;-0.546;2022-08-14T16:16:28;99765;;;30.96;29.17
62632;BME280;48703;51.248;-0.546;2022-08-14T16:19:30;99766;;;30.91;28.30
62632;BME280;48703;51.248;-0.546;2022-08-14T16:22:32;99768;;;30.85;27.99
62632;BME280;48703;51.248;-0.546;2022-08-14T16:25:34;99770;;;30.76;28.78
62632;BME280;48703;51.248;-0.546;2022-08-14T16:28:35;99767;;;30.67;28.69
62632;BME280;48703;51.248;-0.546;2022-08-14T16:31:37;99767;;;30.59;29.65